Portada
METAR-TAF:

METAR-TAF

Aeroports :

Tawau, Malàisia

latitud: 04-16N, longitud: 117-53E, altitud: 18 m

Observació

L'informe es va fer fa 45 minuts, a les 04:00 UTC
Vent 5 kt amb direcció variable
Temperatura 32°C
Humitat 67%
Pressió 1009 hPa
Visibilitat 10 km o més
Núvols disperses a una alçada de 1700 ft

METAR: WBKW 220400Z VRB05KT 9999 SCT017 32/25 Q1009

Hora: 12:45 (04:45 UTC)

Pronòstic

L'informe es va fer fa 5 hores i 45 minuts, a les 23:00 UTC
Pronòstic vàlid del 22 a les 00 UTC al 23 a les 00 UTC
Vent 8 kt del Sud/Sud-Est
Visibilitat 10 km o més
Escasses núvols a una alçada de 1600 ft

TAF: WBKW 212300Z 2200/2300 16008KT 9999 FEW016

Observacions i pronòstics meteorològics de més de 4000 aeroports (METAR i TAF).

Les estacions disponibles són els punts grocs i vermells al mapa.

Posi el ratolí al punt desitjat per veure el nom de l'estació.

Feu clic per veure les observacions i els pronòstics meteorològics.

Per canviar el mapa: feu clic els botons verds amb una creu de color negre per apropar; al botó verd amb un guió per allunyar la imatge; o en les fletxes verdes per a mapes adjacents.


METAR-TAF: